• Join FlightAware (Why Join?)
  • Login
  • US Flag 
11:26AM EDT


 

Airport Tracker/Info


-or-


 

Live Flight TrackerFlight Track Log ✈ THA129 ✈ 29-Apr-2012 ✈ VTCC / CNX - VTSP / HKT

Flight Track Log - Related Links

Times and Time Zones

All times are in EDT time to prevent confusion due to time zone crossing. See the THA129 flight status page for this flight to view local times or setup timezone preferences in your user account.

Time Position Orientation Groundspeed Altitude Reporting Facility
EDT Latitude Longitude Course Direction KTS MPH feet Rate Location/Type
02:09AM 18.7373 98.9608 183° South  Level Estimated
02:10AM 18.6189 98.9532 183° South  Level Estimated
02:11AM 18.5006 98.9457 183° South  Level Estimated
02:12AM 18.3822 98.9382 183° South  Level Estimated
02:13AM 18.2639 98.9307 183° South  Level Estimated
02:14AM 18.1456 98.9232 183° South  Level Estimated
02:15AM 18.0272 98.9157 183° South  Level Estimated
02:16AM 17.9089 98.9082 183° South  Level Estimated
02:17AM 17.7905 98.9008 183° South  Level Estimated
02:18AM 17.6722 98.8933 183° South  Level Estimated
02:19AM 17.5539 98.8859 183° South  Level Estimated
02:20AM 17.4355 98.8784 183° South  Level Estimated
02:21AM 17.3172 98.8710 183° South  Level Estimated
02:22AM 17.1988 98.8636 183° South  Level Estimated
02:23AM 17.0805 98.8562 183° South  Level Estimated
02:24AM 16.9622 98.8488 183° South  Level Estimated
02:25AM 16.8438 98.8414 183° South  Level Estimated
02:26AM 16.7255 98.8340 183° South  Level Estimated
02:27AM 16.6071 98.8267 183° South  Level Estimated
02:28AM 16.4888 98.8193 183° South  Level Estimated
02:29AM 16.3705 98.8120 183° South  Level Estimated
02:30AM 16.2521 98.8046 183° South  Level Estimated
02:31AM 16.1338 98.7973 183° South  Level Estimated
02:32AM 16.0154 98.7899 183° South  Level Estimated
02:33AM 15.8971 98.7826 183° South  Level Estimated
02:34AM 15.7788 98.7753 183° South  Level Estimated
02:35AM 15.6604 98.7680 183° South  Level Estimated
02:36AM 15.5421 98.7607 183° South  Level Estimated
02:37AM 15.4237 98.7534 183° South  Level Estimated
02:38AM 15.3054 98.7462 183° South  Level Estimated
02:39AM 15.1870 98.7389 183° South  Level Estimated
02:40AM 15.0687 98.7316 183° South  Level Estimated
02:41AM 14.9503 98.7244 183° South  Level Estimated
02:42AM 14.8320 98.7171 183° South  Level Estimated
02:43AM 14.7136 98.7099 183° South  Level Estimated
02:44AM 14.5953 98.7027 183° South  Level Estimated
02:45AM 14.4769 98.6955 183° South  Level Estimated
02:46AM 14.3586 98.6882 183° South  Level Estimated
02:47AM 14.2402 98.6811 183° South  Level Estimated
02:48AM 14.1219 98.6739 183° South  Level Estimated
02:49AM 14.0035 98.6667 183° South  Level Estimated
02:50AM 13.8852 98.6595 183° South  Level Estimated
02:51AM 13.7668 98.6523 183° South  Level Estimated
02:52AM 13.6485 98.6452 183° South  Level Estimated
02:53AM 13.5301 98.6380 183° South  Level Estimated
02:54AM 13.4118 98.6309 183° South  Level Estimated
02:55AM 13.2934 98.6237 183° South  Level Estimated
02:56AM 13.1751 98.6166 183° South  Level Estimated
02:57AM 13.0567 98.6094 183° South  Level Estimated
02:58AM 12.9384 98.6023 183° South  Level Estimated
02:59AM 12.8200 98.5952 183° South  Level Estimated
03:00AM 12.7017 98.5881 183° South  Level Estimated
03:01AM 12.5833 98.5810 183° South  Level Estimated
03:02AM 12.4650 98.5739 183° South  Level Estimated
03:03AM 12.3466 98.5668 183° South  Level Estimated
03:04AM 12.2283 98.5597 183° South  Level Estimated
03:05AM 12.1099 98.5527 183° South  Level Estimated
03:06AM 11.9916 98.5456 183° South  Level Estimated
03:07AM 11.8732 98.5385 183° South  Level Estimated
03:08AM 11.7549 98.5314 183° South  Level Estimated
03:09AM 11.6365 98.5244 183° South  Level Estimated
03:10AM 11.5182 98.5173 183° South  Level Estimated
03:11AM 11.3998 98.5103 183° South  Level Estimated
03:12AM 11.2815 98.5033 183° South  Level Estimated
03:13AM 11.1631 98.4962 183° South  Level Estimated
03:14AM 11.0448 98.4892 183° South  Level Estimated
03:15AM 10.9264 98.4822 183° South  Level Estimated
03:16AM 10.8081 98.4752 183° South  Level Estimated
03:17AM 10.6897 98.4682 183° South  Level Estimated
03:18AM 10.5714 98.4612 183° South  Level Estimated
03:19AM 10.4530 98.4542 183° South  Level Estimated
03:20AM 10.3347 98.4472 183° South  Level Estimated
03:21AM 10.2163 98.4402 183° South  Level Estimated
03:22AM 10.0980 98.4332 183° South  Level Estimated
03:23AM 9.9796 98.4262 183° South  Level Estimated
03:24AM 9.8613 98.4193 183° South  Level Estimated
03:25AM 9.7429 98.4123 183° South  Level Estimated
03:26AM 9.6246 98.4053 183° South  Level Estimated
03:27AM 9.5062 98.3984 183° South  Level Estimated
03:28AM 9.3879 98.3914 183° South  Level Estimated
03:29AM 9.2695 98.3845 183° South  Level Estimated
03:30AM 9.1512 98.3776 183° South  Level Estimated
03:31AM 9.0328 98.3706 183° South  Level Estimated
03:32AM 8.9145 98.3637 183° South  Level Estimated
03:33AM 8.7961 98.3568 183° South  Level Estimated
03:34AM 8.6778 98.3499 183° South  Level Estimated
03:35AM 8.5594 98.3429 183° South  Level Estimated
03:36AM 8.4410 98.3360 183° South  Level Estimated
03:37AM 8.3227 98.3291 183° South  Level Estimated
03:38AM 8.2043 98.3222 183° South  Level Estimated
03:39AM 8.0860 98.3153 North  Level Estimated
03:40AM 8.2043 98.3222 183° South  Level Estimated
03:41AM 8.0860 98.3153 North  Level Estimated
03:42AM 8.2043 98.3222 183° South  Level Estimated
03:43AM 8.0860 98.3153 North  Level Estimated
03:44AM 8.2043 98.3222 183° South  Level Estimated
03:45AM 8.0860 98.3153 North  Level Estimated
03:46AM 8.2043 98.3222 183° South  Level Estimated
03:47AM 8.0860 98.3153 North  Level Estimated
03:48AM 8.2043 98.3222 183° South  Level Estimated
03:49AM 8.0860 98.3153 North  Level Estimated
03:50AM 8.2043 98.3222 183° South  Level Estimated
03:51AM 8.0860 98.3153 North  Level Estimated
03:52AM 8.2043 98.3222 183° South  Level Estimated
03:53AM 8.0860 98.3153 North  Level Estimated
03:54AM 8.2043 98.3222 North  Level Estimated